createdAt,value
2022-12-26T00:01:36.244Z,994.44
2022-12-26T00:06:36.353Z,994.36
2022-12-26T00:11:36.213Z,994.31
2022-12-26T00:16:36.153Z,994.47
2022-12-26T00:21:36.043Z,994.35
2022-12-26T00:26:35.992Z,994.42
2022-12-26T00:31:35.980Z,994.33
2022-12-26T00:36:35.919Z,994.24
2022-12-26T00:41:35.829Z,994.33
2022-12-26T00:46:35.900Z,994.31
2022-12-26T00:51:35.696Z,994.24
2022-12-26T00:56:35.651Z,994.29
2022-12-26T01:01:35.777Z,994.37
2022-12-26T01:06:35.637Z,994.42
2022-12-26T01:16:01.308Z,994.53
2022-12-26T01:21:01.271Z,994.60
2022-12-26T01:26:17.690Z,994.68
2022-12-26T01:31:02.083Z,994.74
2022-12-26T01:36:01.131Z,994.77
2022-12-26T01:41:01.061Z,995.05
2022-12-26T01:46:01.028Z,995.00
2022-12-26T01:51:00.841Z,994.99
2022-12-26T01:56:01.922Z,994.92
2022-12-26T02:01:01.038Z,995.00
2022-12-26T02:06:00.683Z,994.97
2022-12-26T02:11:00.770Z,994.85
2022-12-26T02:16:00.664Z,994.90
2022-12-26T02:21:00.602Z,995.14
2022-12-26T02:26:00.619Z,995.10
2022-12-26T02:31:04.012Z,994.93
2022-12-26T02:36:00.448Z,994.95
2022-12-26T02:41:00.449Z,995.06
2022-12-26T02:46:00.335Z,995.16
2022-12-26T02:51:00.361Z,995.25
2022-12-26T02:56:00.301Z,995.13
2022-12-26T03:01:00.276Z,995.14
2022-12-26T03:06:00.045Z,995.19
2022-12-26T03:10:59.989Z,995.17
2022-12-26T03:15:59.963Z,995.24
2022-12-26T03:20:59.948Z,995.19
2022-12-26T03:26:00.938Z,995.32
2022-12-26T03:31:00.931Z,995.21
2022-12-26T03:35:59.741Z,995.20
2022-12-26T03:40:59.803Z,995.41
2022-12-26T03:45:59.637Z,995.42
2022-12-26T03:50:59.567Z,995.45
2022-12-26T03:55:59.507Z,995.42
2022-12-26T04:00:59.494Z,995.41
2022-12-26T04:05:59.449Z,995.53
2022-12-26T04:10:59.329Z,995.59
2022-12-26T04:15:59.295Z,995.58
2022-12-26T04:20:59.206Z,995.63
2022-12-26T04:25:59.127Z,995.80
2022-12-26T04:30:59.118Z,995.86
2022-12-26T04:35:59.073Z,995.78
2022-12-26T04:40:58.966Z,995.74
2022-12-26T04:45:58.950Z,995.87
2022-12-26T04:50:59.016Z,995.86
2022-12-26T04:55:58.807Z,995.88
2022-12-26T05:01:02.355Z,995.94
2022-12-26T05:05:58.717Z,995.90
2022-12-26T05:10:58.699Z,995.92
2022-12-26T05:15:58.630Z,995.83
2022-12-26T05:20:58.561Z,995.94
2022-12-26T05:25:58.423Z,995.95
2022-12-26T05:30:58.417Z,995.90
2022-12-26T05:35:58.348Z,995.93
2022-12-26T05:40:58.311Z,995.92
2022-12-26T05:45:58.202Z,996.02
2022-12-26T05:50:58.335Z,996.03
2022-12-26T05:55:58.268Z,996.11
2022-12-26T06:00:58.085Z,996.13
2022-12-26T06:05:59.147Z,996.09
2022-12-26T06:10:58.057Z,995.95
2022-12-26T06:15:57.980Z,995.76
2022-12-26T06:20:57.814Z,995.77
2022-12-26T06:25:57.900Z,995.70
2022-12-26T06:30:57.893Z,995.85
2022-12-26T06:35:57.647Z,995.87
2022-12-26T06:40:57.606Z,995.86
2022-12-26T06:45:57.602Z,995.85
2022-12-26T06:50:57.508Z,995.84
2022-12-26T06:55:57.459Z,995.95
2022-12-26T07:00:57.439Z,995.92
2022-12-26T07:05:57.311Z,995.89
2022-12-26T07:10:57.279Z,996.03
2022-12-26T07:15:57.451Z,996.25
2022-12-26T07:20:57.317Z,996.49
2022-12-26T07:25:57.289Z,996.52
2022-12-26T07:30:57.051Z,996.38
2022-12-26T07:35:56.975Z,996.52
2022-12-26T07:40:56.942Z,996.50
2022-12-26T07:45:56.967Z,996.68
2022-12-26T07:50:56.815Z,996.66
2022-12-26T07:55:56.795Z,996.73
2022-12-26T08:00:56.792Z,996.74
2022-12-26T08:05:57.756Z,996.84
2022-12-26T08:10:56.634Z,996.87
2022-12-26T08:15:56.612Z,996.85
2022-12-26T08:20:56.545Z,996.84
2022-12-26T08:25:56.460Z,996.83
2022-12-26T08:30:56.473Z,996.87
2022-12-26T08:35:56.333Z,996.94
2022-12-26T08:40:56.504Z,996.96
2022-12-26T08:45:58.405Z,997.02
2022-12-26T08:50:56.242Z,997.11
2022-12-26T08:55:56.121Z,997.05
2022-12-26T09:00:56.289Z,997.12
2022-12-26T09:05:57.079Z,997.15
2022-12-26T09:10:55.964Z,997.16
2022-12-26T09:15:55.890Z,997.30
2022-12-26T09:20:55.831Z,997.22
2022-12-26T09:25:55.800Z,997.37
2022-12-26T09:30:55.754Z,997.30
2022-12-26T09:36:03.076Z,997.26
2022-12-26T09:40:56.600Z,997.37
2022-12-26T09:45:55.711Z,997.53
2022-12-26T09:50:55.530Z,997.53
2022-12-26T09:55:55.470Z,997.55
2022-12-26T10:00:55.562Z,997.50
2022-12-26T10:05:55.353Z,997.68
2022-12-26T10:10:55.299Z,997.55
2022-12-26T10:15:55.273Z,997.70
2022-12-26T10:20:55.260Z,997.63
2022-12-26T10:25:55.178Z,997.54
2022-12-26T10:30:55.267Z,997.56
2022-12-26T10:35:55.067Z,997.54
2022-12-26T10:40:55.000Z,997.45
2022-12-26T10:45:54.933Z,997.49
2022-12-26T10:50:54.859Z,997.48
2022-12-26T10:55:54.816Z,997.48
2022-12-26T11:00:54.781Z,997.48
2022-12-26T11:06:10.118Z,997.36
2022-12-26T11:10:55.772Z,997.46
2022-12-26T11:15:54.796Z,997.43
2022-12-26T11:20:54.581Z,997.46
2022-12-26T11:25:54.481Z,997.40
2022-12-26T11:30:54.738Z,997.45
2022-12-26T11:35:54.444Z,997.45
2022-12-26T11:40:54.375Z,997.53
2022-12-26T11:45:54.285Z,997.52
2022-12-26T11:50:54.169Z,997.48
2022-12-26T11:55:54.228Z,997.50
2022-12-26T12:00:54.102Z,997.43
2022-12-26T12:05:54.033Z,997.45
2022-12-26T12:10:57.403Z,997.41
2022-12-26T12:15:56.161Z,997.43
2022-12-26T12:20:53.901Z,997.39
2022-12-26T12:25:54.860Z,997.47
2022-12-26T12:30:53.766Z,997.38
2022-12-26T12:35:53.885Z,997.45
2022-12-26T12:40:54.339Z,997.50
2022-12-26T12:45:53.660Z,997.61
2022-12-26T12:50:56.689Z,997.43
2022-12-26T12:55:53.575Z,997.51
2022-12-26T13:04:18.797Z,997.55
2022-12-26T13:09:18.799Z,997.70
2022-12-26T13:14:18.748Z,998.05
2022-12-26T13:19:18.622Z,998.08
2022-12-26T13:24:18.625Z,998.01
2022-12-26T13:29:18.470Z,998.11
2022-12-26T13:34:18.447Z,998.22
2022-12-26T13:39:18.496Z,998.28
2022-12-26T13:44:18.341Z,998.41
2022-12-26T13:49:18.294Z,998.43
2022-12-26T13:54:18.198Z,998.45
2022-12-26T13:59:18.141Z,998.45
2022-12-26T14:04:18.283Z,998.51
2022-12-26T14:09:18.157Z,998.46
2022-12-26T14:14:18.074Z,998.51
2022-12-26T14:19:18.174Z,998.60
2022-12-26T14:24:17.878Z,998.68
2022-12-26T14:29:17.851Z,998.84
2022-12-26T14:34:17.821Z,998.99
2022-12-26T14:39:17.749Z,999.04
2022-12-26T14:44:17.691Z,999.18
2022-12-26T14:49:17.627Z,999.45
2022-12-26T14:54:19.668Z,999.52
2022-12-26T14:59:17.511Z,999.54
2022-12-26T15:04:17.572Z,999.64
2022-12-26T15:09:17.363Z,999.57
2022-12-26T15:14:17.348Z,999.62
2022-12-26T15:19:17.276Z,999.71
2022-12-26T15:24:17.226Z,999.78
2022-12-26T15:29:17.168Z,999.82
2022-12-26T15:34:17.103Z,1000.01
2022-12-26T15:39:17.079Z,999.99
2022-12-26T15:44:17.176Z,1000.02
2022-12-26T15:49:17.065Z,1000.09
2022-12-26T15:54:16.932Z,1000.26
2022-12-26T15:59:16.887Z,1000.44
2022-12-26T16:04:16.930Z,1000.48
2022-12-26T16:09:16.818Z,1000.61
2022-12-26T16:14:16.767Z,1000.62
2022-12-26T16:19:16.632Z,1000.68
2022-12-26T16:24:16.627Z,1000.79
2022-12-26T16:29:16.548Z,1000.84
2022-12-26T16:34:16.612Z,1000.98
2022-12-26T16:39:18.614Z,1001.09
2022-12-26T16:44:16.424Z,1001.23
2022-12-26T16:49:16.473Z,1001.34
2022-12-26T16:54:16.548Z,1001.41
2022-12-26T16:59:17.904Z,1001.51
2022-12-26T17:04:16.193Z,1001.52
2022-12-26T17:09:17.229Z,1001.57
2022-12-26T17:14:16.099Z,1001.69
2022-12-26T17:19:16.019Z,1001.81
2022-12-26T17:24:15.937Z,1001.98
2022-12-26T17:29:15.901Z,1002.04
2022-12-26T17:34:15.908Z,1002.00
2022-12-26T17:39:16.952Z,1002.15
2022-12-26T17:44:15.989Z,1002.15
2022-12-26T17:49:15.737Z,1002.24
2022-12-26T17:54:15.796Z,1002.28
2022-12-26T17:59:15.584Z,1002.31
2022-12-26T18:04:15.527Z,1002.41
2022-12-26T18:09:15.476Z,1002.54
2022-12-26T18:14:15.460Z,1002.56
2022-12-26T18:19:15.450Z,1002.71
2022-12-26T18:24:15.247Z,1002.78
2022-12-26T18:29:15.191Z,1002.82
2022-12-26T18:34:15.160Z,1002.86
2022-12-26T18:39:15.074Z,1003.05
2022-12-26T18:44:15.044Z,1003.13
2022-12-26T18:49:14.984Z,1003.19
2022-12-26T18:54:14.964Z,1003.27
2022-12-26T18:59:14.907Z,1003.29
2022-12-26T19:04:14.868Z,1003.45
2022-12-26T19:09:14.865Z,1003.59
2022-12-26T19:15:49.573Z,1003.68
2022-12-26T19:20:49.518Z,1003.80
2022-12-26T19:25:49.415Z,1003.88
2022-12-26T19:30:49.444Z,1003.92
2022-12-26T19:35:49.371Z,1003.97
2022-12-26T19:40:49.260Z,1004.04
2022-12-26T19:45:49.445Z,1004.14
2022-12-26T19:50:50.241Z,1004.27
2022-12-26T19:55:49.151Z,1004.36
2022-12-26T20:00:49.138Z,1004.50
2022-12-26T20:05:50.066Z,1004.48
2022-12-26T20:10:48.910Z,1004.53
2022-12-26T20:15:48.886Z,1004.66
2022-12-26T20:20:48.847Z,1004.65
2022-12-26T20:25:48.812Z,1004.77
2022-12-26T20:30:48.726Z,1004.77
2022-12-26T20:35:48.642Z,1004.87
2022-12-26T20:40:50.319Z,1004.93
2022-12-26T20:45:48.711Z,1004.90
2022-12-26T20:50:48.577Z,1004.90
2022-12-26T20:55:48.503Z,1004.95
2022-12-26T21:00:48.411Z,1004.98
2022-12-26T21:05:48.376Z,1005.05
2022-12-26T21:10:48.380Z,1005.06
2022-12-26T21:15:48.239Z,1005.09
2022-12-26T21:20:48.254Z,1005.13
2022-12-26T21:25:48.194Z,1005.19
2022-12-26T21:30:48.110Z,1005.14
2022-12-26T21:35:48.036Z,1005.25
2022-12-26T21:40:47.953Z,1005.29
2022-12-26T21:45:47.945Z,1005.23
2022-12-26T21:50:47.996Z,1005.34
2022-12-26T21:55:47.862Z,1005.31
2022-12-26T22:00:47.748Z,1005.35
2022-12-26T22:05:47.728Z,1005.32
2022-12-26T22:10:47.636Z,1005.31
2022-12-26T22:15:47.775Z,1005.38
2022-12-26T22:20:47.721Z,1005.54
2022-12-26T22:25:47.694Z,1005.57
2022-12-26T22:30:47.455Z,1005.72
2022-12-26T22:35:47.407Z,1005.76
2022-12-26T22:40:47.384Z,1005.77
2022-12-26T22:45:47.372Z,1005.81
2022-12-26T22:50:47.192Z,1005.82
2022-12-26T22:55:47.128Z,1005.91
2022-12-26T23:00:47.092Z,1005.95
2022-12-26T23:05:47.047Z,1006.02
2022-12-26T23:10:47.026Z,1006.06
2022-12-26T23:15:47.100Z,1006.05
2022-12-26T23:20:46.846Z,1006.11
2022-12-26T23:25:47.986Z,1006.09
2022-12-26T23:30:46.759Z,1006.09
2022-12-26T23:35:46.750Z,1006.14
2022-12-26T23:40:46.621Z,1006.12
2022-12-26T23:45:46.639Z,1006.22
2022-12-26T23:50:46.568Z,1006.23
2022-12-26T23:55:46.538Z,1006.33
